sensor_id;sensor_type;location;lat;lon;timestamp;P1;durP1;ratioP1;P2;durP2;ratioP2
22160;SDS011;49035;48.812;11.762;2023-09-19T00:01:39;8.23;;;5.45;;
22160;SDS011;49035;48.812;11.762;2023-09-19T00:04:06;7.57;;;5.22;;
22160;SDS011;49035;48.812;11.762;2023-09-19T00:06:35;7.05;;;4.13;;
22160;SDS011;49035;48.812;11.762;2023-09-19T00:09:02;7.65;;;4.70;;
22160;SDS011;49035;48.812;11.762;2023-09-19T00:11:28;7.38;;;3.53;;
22160;SDS011;49035;48.812;11.762;2023-09-19T00:13:54;8.70;;;4.90;;
22160;SDS011;49035;48.812;11.762;2023-09-19T00:16:20;9.68;;;4.95;;
22160;SDS011;49035;48.812;11.762;2023-09-19T00:18:46;10.93;;;5.32;;
22160;SDS011;49035;48.812;11.762;2023-09-19T00:21:11;9.18;;;4.55;;
22160;SDS011;49035;48.812;11.762;2023-09-19T00:23:37;9.07;;;4.93;;
22160;SDS011;49035;48.812;11.762;2023-09-19T00:26:06;8.43;;;4.50;;
22160;SDS011;49035;48.812;11.762;2023-09-19T00:28:31;7.68;;;4.70;;
22160;SDS011;49035;48.812;11.762;2023-09-19T00:30:57;7.90;;;4.07;;
22160;SDS011;49035;48.812;11.762;2023-09-19T00:33:26;12.15;;;4.90;;
22160;SDS011;49035;48.812;11.762;2023-09-19T00:35:52;6.88;;;4.38;;
22160;SDS011;49035;48.812;11.762;2023-09-19T00:38:19;7.65;;;4.72;;
22160;SDS011;49035;48.812;11.762;2023-09-19T00:40:48;11.57;;;5.13;;
22160;SDS011;49035;48.812;11.762;2023-09-19T00:43:16;11.38;;;4.40;;
22160;SDS011;49035;48.812;11.762;2023-09-19T00:45:45;7.30;;;4.47;;
22160;SDS011;49035;48.812;11.762;2023-09-19T00:48:13;5.72;;;4.40;;
22160;SDS011;49035;48.812;11.762;2023-09-19T00:50:41;9.80;;;4.25;;
22160;SDS011;49035;48.812;11.762;2023-09-19T00:53:08;8.88;;;3.95;;
22160;SDS011;49035;48.812;11.762;2023-09-19T00:55:34;8.27;;;3.35;;
22160;SDS011;49035;48.812;11.762;2023-09-19T00:58:02;10.13;;;3.80;;
22160;SDS011;49035;48.812;11.762;2023-09-19T01:00:28;5.88;;;3.75;;
22160;SDS011;49035;48.812;11.762;2023-09-19T01:02:54;7.28;;;3.70;;
22160;SDS011;49035;48.812;11.762;2023-09-19T01:05:20;7.47;;;4.15;;
22160;SDS011;49035;48.812;11.762;2023-09-19T01:07:46;13.23;;;4.72;;
22160;SDS011;49035;48.812;11.762;2023-09-19T01:10:15;12.73;;;4.35;;
22160;SDS011;49035;48.812;11.762;2023-09-19T01:12:47;6.53;;;4.00;;
22160;SDS011;49035;48.812;11.762;2023-09-19T01:23:20;7.82;;;3.40;;
22160;SDS011;49035;48.812;11.762;2023-09-19T01:28:43;4.90;;;3.25;;
22160;SDS011;49035;48.812;11.762;2023-09-19T01:31:23;4.43;;;3.28;;
22160;SDS011;49035;48.812;11.762;2023-09-19T01:33:55;5.40;;;3.22;;
22160;SDS011;49035;48.812;11.762;2023-09-19T01:36:26;10.80;;;3.63;;
22160;SDS011;49035;48.812;11.762;2023-09-19T01:38:54;5.85;;;3.30;;
22160;SDS011;49035;48.812;11.762;2023-09-19T01:41:33;5.72;;;3.22;;
22160;SDS011;49035;48.812;11.762;2023-09-19T01:44:11;5.80;;;2.70;;
22160;SDS011;49035;48.812;11.762;2023-09-19T01:46:42;3.63;;;2.83;;
22160;SDS011;49035;48.812;11.762;2023-09-19T01:49:18;9.73;;;3.10;;
22160;SDS011;49035;48.812;11.762;2023-09-19T01:52:06;2.72;;;2.22;;
22160;SDS011;49035;48.812;11.762;2023-09-19T01:54:42;8.50;;;2.88;;
22160;SDS011;49035;48.812;11.762;2023-09-19T01:57:26;7.63;;;2.53;;
22160;SDS011;49035;48.812;11.762;2023-09-19T01:59:57;7.88;;;3.20;;
22160;SDS011;49035;48.812;11.762;2023-09-19T02:02:31;6.15;;;3.25;;
22160;SDS011;49035;48.812;11.762;2023-09-19T02:05:03;5.28;;;3.08;;
22160;SDS011;49035;48.812;11.762;2023-09-19T02:07:29;8.18;;;3.20;;
22160;SDS011;49035;48.812;11.762;2023-09-19T02:09:58;14.13;;;3.00;;
22160;SDS011;49035;48.812;11.762;2023-09-19T02:12:25;7.35;;;3.10;;
22160;SDS011;49035;48.812;11.762;2023-09-19T02:14:51;10.65;;;2.83;;
22160;SDS011;49035;48.812;11.762;2023-09-19T02:17:17;5.97;;;3.10;;
22160;SDS011;49035;48.812;11.762;2023-09-19T02:19:42;4.68;;;2.78;;
22160;SDS011;49035;48.812;11.762;2023-09-19T02:22:08;10.05;;;3.05;;
22160;SDS011;49035;48.812;11.762;2023-09-19T02:24:35;5.68;;;2.50;;
22160;SDS011;49035;48.812;11.762;2023-09-19T02:27:04;3.20;;;2.67;;
22160;SDS011;49035;48.812;11.762;2023-09-19T02:29:30;9.18;;;2.90;;
22160;SDS011;49035;48.812;11.762;2023-09-19T02:31:55;7.55;;;2.50;;
22160;SDS011;49035;48.812;11.762;2023-09-19T02:34:21;6.15;;;2.70;;
22160;SDS011;49035;48.812;11.762;2023-09-19T02:36:47;5.43;;;2.75;;
22160;SDS011;49035;48.812;11.762;2023-09-19T02:39:13;8.23;;;2.95;;
22160;SDS011;49035;48.812;11.762;2023-09-19T02:41:39;4.82;;;3.03;;
22160;SDS011;49035;48.812;11.762;2023-09-19T02:44:06;6.50;;;2.45;;
22160;SDS011;49035;48.812;11.762;2023-09-19T02:46:33;5.03;;;2.67;;
22160;SDS011;49035;48.812;11.762;2023-09-19T02:48:59;7.75;;;2.50;;
22160;SDS011;49035;48.812;11.762;2023-09-19T02:51:24;5.53;;;2.60;;
22160;SDS011;49035;48.812;11.762;2023-09-19T02:53:50;4.80;;;2.80;;
22160;SDS011;49035;48.812;11.762;2023-09-19T02:56:19;5.72;;;2.40;;
22160;SDS011;49035;48.812;11.762;2023-09-19T02:58:45;6.45;;;2.50;;
22160;SDS011;49035;48.812;11.762;2023-09-19T03:01:10;5.60;;;2.08;;
22160;SDS011;49035;48.812;11.762;2023-09-19T03:03:37;5.68;;;2.63;;
22160;SDS011;49035;48.812;11.762;2023-09-19T03:06:04;6.10;;;2.67;;
22160;SDS011;49035;48.812;11.762;2023-09-19T03:08:30;6.35;;;2.15;;
22160;SDS011;49035;48.812;11.762;2023-09-19T03:11:03;4.20;;;2.22;;
22160;SDS011;49035;48.812;11.762;2023-09-19T03:13:30;3.05;;;2.13;;
22160;SDS011;49035;48.812;11.762;2023-09-19T03:15:56;3.30;;;2.20;;
22160;SDS011;49035;48.812;11.762;2023-09-19T03:18:23;3.53;;;1.95;;
22160;SDS011;49035;48.812;11.762;2023-09-19T03:20:55;5.82;;;2.20;;
22160;SDS011;49035;48.812;11.762;2023-09-19T03:23:21;4.00;;;2.00;;
22160;SDS011;49035;48.812;11.762;2023-09-19T03:25:47;2.63;;;2.05;;
22160;SDS011;49035;48.812;11.762;2023-09-19T03:28:13;6.63;;;2.28;;
22160;SDS011;49035;48.812;11.762;2023-09-19T03:30:40;7.80;;;2.22;;
22160;SDS011;49035;48.812;11.762;2023-09-19T03:33:07;2.30;;;1.80;;
22160;SDS011;49035;48.812;11.762;2023-09-19T03:35:33;5.43;;;2.03;;
22160;SDS011;49035;48.812;11.762;2023-09-19T03:37:59;4.22;;;2.15;;
22160;SDS011;49035;48.812;11.762;2023-09-19T03:40:25;3.42;;;1.88;;
22160;SDS011;49035;48.812;11.762;2023-09-19T03:42:51;2.85;;;1.75;;
22160;SDS011;49035;48.812;11.762;2023-09-19T03:45:16;5.13;;;1.95;;
22160;SDS011;49035;48.812;11.762;2023-09-19T03:47:43;3.75;;;2.10;;
22160;SDS011;49035;48.812;11.762;2023-09-19T03:50:09;4.13;;;2.20;;
22160;SDS011;49035;48.812;11.762;2023-09-19T03:52:40;4.47;;;2.10;;
22160;SDS011;49035;48.812;11.762;2023-09-19T03:55:06;3.88;;;1.90;;
22160;SDS011;49035;48.812;11.762;2023-09-19T03:57:31;2.33;;;1.80;;
22160;SDS011;49035;48.812;11.762;2023-09-19T03:59:57;2.78;;;2.13;;
22160;SDS011;49035;48.812;11.762;2023-09-19T04:02:23;3.45;;;2.15;;
22160;SDS011;49035;48.812;11.762;2023-09-19T04:04:50;4.50;;;1.70;;
22160;SDS011;49035;48.812;11.762;2023-09-19T04:07:18;3.80;;;1.95;;
22160;SDS011;49035;48.812;11.762;2023-09-19T04:09:47;6.28;;;1.60;;
22160;SDS011;49035;48.812;11.762;2023-09-19T04:12:14;2.13;;;1.67;;
22160;SDS011;49035;48.812;11.762;2023-09-19T04:14:41;3.38;;;1.90;;
22160;SDS011;49035;48.812;11.762;2023-09-19T04:17:07;2.88;;;1.88;;
22160;SDS011;49035;48.812;11.762;2023-09-19T04:19:33;4.93;;;1.75;;
22160;SDS011;49035;48.812;11.762;2023-09-19T04:21:58;4.20;;;1.77;;
22160;SDS011;49035;48.812;11.762;2023-09-19T04:24:24;4.38;;;1.77;;
22160;SDS011;49035;48.812;11.762;2023-09-19T04:26:49;2.28;;;1.65;;
22160;SDS011;49035;48.812;11.762;2023-09-19T04:29:15;2.22;;;1.75;;
22160;SDS011;49035;48.812;11.762;2023-09-19T04:31:41;3.03;;;1.35;;
22160;SDS011;49035;48.812;11.762;2023-09-19T04:34:10;2.78;;;1.77;;
22160;SDS011;49035;48.812;11.762;2023-09-19T04:36:39;2.20;;;1.73;;
22160;SDS011;49035;48.812;11.762;2023-09-19T04:39:05;3.97;;;1.75;;
22160;SDS011;49035;48.812;11.762;2023-09-19T04:41:30;4.38;;;1.88;;
22160;SDS011;49035;48.812;11.762;2023-09-19T04:43:56;3.28;;;1.77;;
22160;SDS011;49035;48.812;11.762;2023-09-19T04:46:22;5.03;;;1.65;;
22160;SDS011;49035;48.812;11.762;2023-09-19T04:48:47;3.72;;;1.83;;
22160;SDS011;49035;48.812;11.762;2023-09-19T04:51:13;2.10;;;1.50;;
22160;SDS011;49035;48.812;11.762;2023-09-19T04:53:40;4.78;;;1.90;;
22160;SDS011;49035;48.812;11.762;2023-09-19T04:56:06;4.68;;;2.20;;
22160;SDS011;49035;48.812;11.762;2023-09-19T04:58:32;5.85;;;1.88;;
22160;SDS011;49035;48.812;11.762;2023-09-19T05:00:59;2.38;;;2.13;;
22160;SDS011;49035;48.812;11.762;2023-09-19T05:03:24;3.88;;;2.13;;
22160;SDS011;49035;48.812;11.762;2023-09-19T05:05:50;2.75;;;2.03;;
22160;SDS011;49035;48.812;11.762;2023-09-19T05:08:15;3.75;;;1.98;;
22160;SDS011;49035;48.812;11.762;2023-09-19T05:10:41;4.47;;;2.38;;
22160;SDS011;49035;48.812;11.762;2023-09-19T05:13:07;4.25;;;2.70;;
22160;SDS011;49035;48.812;11.762;2023-09-19T05:15:33;3.90;;;2.40;;
22160;SDS011;49035;48.812;11.762;2023-09-19T05:18:00;5.80;;;2.45;;
22160;SDS011;49035;48.812;11.762;2023-09-19T05:20:26;4.05;;;2.45;;
22160;SDS011;49035;48.812;11.762;2023-09-19T05:23:04;4.38;;;2.50;;
22160;SDS011;49035;48.812;11.762;2023-09-19T05:25:34;6.75;;;2.60;;
22160;SDS011;49035;48.812;11.762;2023-09-19T05:28:07;4.32;;;2.50;;
22160;SDS011;49035;48.812;11.762;2023-09-19T05:30:35;3.88;;;2.17;;
22160;SDS011;49035;48.812;11.762;2023-09-19T05:33:02;6.28;;;2.78;;
22160;SDS011;49035;48.812;11.762;2023-09-19T05:35:29;6.50;;;2.40;;
22160;SDS011;49035;48.812;11.762;2023-09-19T05:37:55;4.90;;;2.53;;
22160;SDS011;49035;48.812;11.762;2023-09-19T05:40:23;6.53;;;2.72;;
22160;SDS011;49035;48.812;11.762;2023-09-19T05:42:49;4.88;;;2.70;;
22160;SDS011;49035;48.812;11.762;2023-09-19T05:45:16;6.00;;;2.45;;
22160;SDS011;49035;48.812;11.762;2023-09-19T05:47:51;6.25;;;2.63;;
22160;SDS011;49035;48.812;11.762;2023-09-19T05:50:20;3.92;;;2.58;;
22160;SDS011;49035;48.812;11.762;2023-09-19T05:52:53;2.25;;;1.83;;
22160;SDS011;49035;48.812;11.762;2023-09-19T05:55:23;5.63;;;2.30;;
22160;SDS011;49035;48.812;11.762;2023-09-19T05:57:53;5.60;;;2.65;;
22160;SDS011;49035;48.812;11.762;2023-09-19T06:00:19;5.25;;;2.78;;
22160;SDS011;49035;48.812;11.762;2023-09-19T06:02:52;5.82;;;2.35;;
22160;SDS011;49035;48.812;11.762;2023-09-19T06:05:23;5.88;;;2.50;;
22160;SDS011;49035;48.812;11.762;2023-09-19T06:07:51;6.53;;;3.00;;
22160;SDS011;49035;48.812;11.762;2023-09-19T06:10:18;4.78;;;2.85;;
22160;SDS011;49035;48.812;11.762;2023-09-19T06:12:45;4.82;;;2.83;;
22160;SDS011;49035;48.812;11.762;2023-09-19T06:15:12;2.78;;;2.45;;
22160;SDS011;49035;48.812;11.762;2023-09-19T06:17:47;5.45;;;2.65;;
22160;SDS011;49035;48.812;11.762;2023-09-19T06:20:13;5.22;;;2.60;;
22160;SDS011;49035;48.812;11.762;2023-09-19T06:22:40;2.92;;;2.42;;
22160;SDS011;49035;48.812;11.762;2023-09-19T06:25:07;3.53;;;2.60;;
22160;SDS011;49035;48.812;11.762;2023-09-19T06:27:36;3.80;;;2.25;;
22160;SDS011;49035;48.812;11.762;2023-09-19T06:30:02;3.47;;;2.47;;
22160;SDS011;49035;48.812;11.762;2023-09-19T06:32:28;3.20;;;2.20;;
22160;SDS011;49035;48.812;11.762;2023-09-19T06:34:53;6.45;;;2.28;;
22160;SDS011;49035;48.812;11.762;2023-09-19T06:37:20;3.25;;;2.03;;
22160;SDS011;49035;48.812;11.762;2023-09-19T06:39:47;3.10;;;2.05;;
22160;SDS011;49035;48.812;11.762;2023-09-19T06:42:14;3.67;;;2.17;;
22160;SDS011;49035;48.812;11.762;2023-09-19T06:44:42;3.63;;;2.28;;
22160;SDS011;49035;48.812;11.762;2023-09-19T06:47:08;2.80;;;1.70;;
22160;SDS011;49035;48.812;11.762;2023-09-19T06:49:35;5.03;;;1.95;;
22160;SDS011;49035;48.812;11.762;2023-09-19T06:52:00;2.45;;;1.80;;
22160;SDS011;49035;48.812;11.762;2023-09-19T06:54:27;3.58;;;1.77;;
22160;SDS011;49035;48.812;11.762;2023-09-19T06:56:56;2.88;;;2.17;;
22160;SDS011;49035;48.812;11.762;2023-09-19T06:59:24;4.88;;;2.90;;
22160;SDS011;49035;48.812;11.762;2023-09-19T07:01:49;4.72;;;2.00;;
22160;SDS011;49035;48.812;11.762;2023-09-19T07:04:17;2.38;;;1.88;;
22160;SDS011;49035;48.812;11.762;2023-09-19T07:06:44;2.63;;;1.85;;
22160;SDS011;49035;48.812;11.762;2023-09-19T07:09:16;2.90;;;2.08;;
22160;SDS011;49035;48.812;11.762;2023-09-19T07:11:42;4.32;;;2.40;;
22160;SDS011;49035;48.812;11.762;2023-09-19T07:14:08;3.90;;;1.70;;
22160;SDS011;49035;48.812;11.762;2023-09-19T07:16:36;6.60;;;2.40;;
22160;SDS011;49035;48.812;11.762;2023-09-19T07:19:03;3.92;;;2.15;;
22160;SDS011;49035;48.812;11.762;2023-09-19T07:21:29;3.67;;;2.03;;
22160;SDS011;49035;48.812;11.762;2023-09-19T07:23:55;1.85;;;1.63;;
22160;SDS011;49035;48.812;11.762;2023-09-19T07:26:20;4.82;;;1.80;;
22160;SDS011;49035;48.812;11.762;2023-09-19T07:28:46;2.55;;;1.40;;
22160;SDS011;49035;48.812;11.762;2023-09-19T07:31:11;4.95;;;1.70;;
22160;SDS011;49035;48.812;11.762;2023-09-19T07:33:39;5.18;;;1.52;;
22160;SDS011;49035;48.812;11.762;2023-09-19T07:36:05;4.45;;;1.70;;
22160;SDS011;49035;48.812;11.762;2023-09-19T07:38:31;3.90;;;1.95;;
22160;SDS011;49035;48.812;11.762;2023-09-19T07:41:00;3.42;;;1.75;;
22160;SDS011;49035;48.812;11.762;2023-09-19T07:43:27;3.05;;;1.67;;
22160;SDS011;49035;48.812;11.762;2023-09-19T07:45:53;3.25;;;1.77;;
22160;SDS011;49035;48.812;11.762;2023-09-19T07:48:18;4.10;;;1.30;;
22160;SDS011;49035;48.812;11.762;2023-09-19T07:50:44;4.28;;;1.60;;
22160;SDS011;49035;48.812;11.762;2023-09-19T07:53:10;4.10;;;1.48;;
22160;SDS011;49035;48.812;11.762;2023-09-19T07:55:38;5.97;;;1.65;;
22160;SDS011;49035;48.812;11.762;2023-09-19T07:58:06;3.72;;;1.30;;
22160;SDS011;49035;48.812;11.762;2023-09-19T08:00:32;2.05;;;1.23;;
22160;SDS011;49035;48.812;11.762;2023-09-19T08:02:59;1.92;;;1.30;;
22160;SDS011;49035;48.812;11.762;2023-09-19T08:05:26;3.05;;;1.55;;
22160;SDS011;49035;48.812;11.762;2023-09-19T08:07:51;4.38;;;1.55;;
22160;SDS011;49035;48.812;11.762;2023-09-19T08:10:18;2.05;;;1.52;;
22160;SDS011;49035;48.812;11.762;2023-09-19T08:12:46;4.10;;;1.58;;
22160;SDS011;49035;48.812;11.762;2023-09-19T08:15:13;5.72;;;1.50;;
22160;SDS011;49035;48.812;11.762;2023-09-19T08:17:49;2.85;;;1.45;;
22160;SDS011;49035;48.812;11.762;2023-09-19T08:20:15;2.55;;;1.45;;
22160;SDS011;49035;48.812;11.762;2023-09-19T08:22:49;2.60;;;1.90;;
22160;SDS011;49035;48.812;11.762;2023-09-19T08:25:17;1.73;;;1.15;;
22160;SDS011;49035;48.812;11.762;2023-09-19T08:27:43;3.85;;;1.40;;
22160;SDS011;49035;48.812;11.762;2023-09-19T08:30:13;2.40;;;1.35;;
22160;SDS011;49035;48.812;11.762;2023-09-19T08:32:40;4.57;;;1.27;;
22160;SDS011;49035;48.812;11.762;2023-09-19T08:35:07;1.58;;;1.23;;
22160;SDS011;49035;48.812;11.762;2023-09-19T08:37:34;1.13;;;1.02;;
22160;SDS011;49035;48.812;11.762;2023-09-19T08:40:00;2.97;;;1.67;;
22160;SDS011;49035;48.812;11.762;2023-09-19T08:42:25;3.40;;;1.77;;
22160;SDS011;49035;48.812;11.762;2023-09-19T08:44:52;2.90;;;1.02;;
22160;SDS011;49035;48.812;11.762;2023-09-19T08:47:22;2.92;;;1.35;;
22160;SDS011;49035;48.812;11.762;2023-09-19T08:50:01;6.20;;;1.60;;
22160;SDS011;49035;48.812;11.762;2023-09-19T08:52:42;4.82;;;1.30;;
22160;SDS011;49035;48.812;11.762;2023-09-19T08:55:11;4.03;;;1.38;;
22160;SDS011;49035;48.812;11.762;2023-09-19T08:57:38;1.45;;;1.35;;
22160;SDS011;49035;48.812;11.762;2023-09-19T09:00:07;4.40;;;1.58;;
22160;SDS011;49035;48.812;11.762;2023-09-19T09:02:38;1.80;;;1.50;;
22160;SDS011;49035;48.812;11.762;2023-09-19T09:05:16;1.95;;;1.60;;
22160;SDS011;49035;48.812;11.762;2023-09-19T09:07:51;2.28;;;1.40;;
22160;SDS011;49035;48.812;11.762;2023-09-19T09:10:24;1.75;;;1.45;;
22160;SDS011;49035;48.812;11.762;2023-09-19T09:12:57;3.47;;;1.38;;
22160;SDS011;49035;48.812;11.762;2023-09-19T09:15:24;3.10;;;1.27;;
22160;SDS011;49035;48.812;11.762;2023-09-19T09:17:50;2.33;;;1.33;;
22160;SDS011;49035;48.812;11.762;2023-09-19T09:20:18;4.85;;;1.75;;
22160;SDS011;49035;48.812;11.762;2023-09-19T09:22:54;7.05;;;1.63;;
22160;SDS011;49035;48.812;11.762;2023-09-19T09:29:01;4.72;;;2.22;;
22160;SDS011;49035;48.812;11.762;2023-09-19T09:31:32;2.20;;;1.55;;
22160;SDS011;49035;48.812;11.762;2023-09-19T09:34:06;5.03;;;2.15;;
22160;SDS011;49035;48.812;11.762;2023-09-19T09:36:39;3.65;;;2.00;;
22160;SDS011;49035;48.812;11.762;2023-09-19T09:39:09;2.00;;;1.40;;
22160;SDS011;49035;48.812;11.762;2023-09-19T09:41:50;2.85;;;1.55;;
22160;SDS011;49035;48.812;11.762;2023-09-19T09:44:18;3.13;;;1.63;;
22160;SDS011;49035;48.812;11.762;2023-09-19T09:46:45;2.38;;;1.45;;
22160;SDS011;49035;48.812;11.762;2023-09-19T09:49:36;3.67;;;1.98;;
22160;SDS011;49035;48.812;11.762;2023-09-19T09:52:26;3.88;;;1.42;;
22160;SDS011;49035;48.812;11.762;2023-09-19T09:55:06;3.05;;;1.65;;
22160;SDS011;49035;48.812;11.762;2023-09-19T09:57:38;2.63;;;1.60;;
22160;SDS011;49035;48.812;11.762;2023-09-19T10:00:06;1.15;;;1.05;;
22160;SDS011;49035;48.812;11.762;2023-09-19T10:02:45;3.03;;;1.35;;
22160;SDS011;49035;48.812;11.762;2023-09-19T10:07:45;2.88;;;1.30;;
22160;SDS011;49035;48.812;11.762;2023-09-19T10:10:36;1.95;;;1.60;;
22160;SDS011;49035;48.812;11.762;2023-09-19T10:13:08;1.95;;;1.20;;
22160;SDS011;49035;48.812;11.762;2023-09-19T10:15:38;3.08;;;1.20;;
22160;SDS011;49035;48.812;11.762;2023-09-19T10:18:15;1.98;;;1.30;;
22160;SDS011;49035;48.812;11.762;2023-09-19T10:20:46;1.90;;;0.98;;
22160;SDS011;49035;48.812;11.762;2023-09-19T10:23:15;2.22;;;1.27;;
22160;SDS011;49035;48.812;11.762;2023-09-19T10:25:47;1.10;;;1.00;;
22160;SDS011;49035;48.812;11.762;2023-09-19T10:28:14;1.88;;;1.10;;
22160;SDS011;49035;48.812;11.762;2023-09-19T10:30:45;1.35;;;1.25;;
22160;SDS011;49035;48.812;11.762;2023-09-19T10:33:16;1.60;;;0.95;;
22160;SDS011;49035;48.812;11.762;2023-09-19T10:35:44;1.92;;;1.05;;
22160;SDS011;49035;48.812;11.762;2023-09-19T10:38:12;1.63;;;1.10;;
22160;SDS011;49035;48.812;11.762;2023-09-19T10:40:39;1.33;;;1.13;;
22160;SDS011;49035;48.812;11.762;2023-09-19T10:43:12;1.15;;;1.05;;
22160;SDS011;49035;48.812;11.762;2023-09-19T10:45:46;2.65;;;1.33;;
22160;SDS011;49035;48.812;11.762;2023-09-19T10:48:15;1.30;;;0.82;;
22160;SDS011;49035;48.812;11.762;2023-09-19T10:50:53;0.90;;;0.90;;
22160;SDS011;49035;48.812;11.762;2023-09-19T10:53:39;2.05;;;1.00;;
22160;SDS011;49035;48.812;11.762;2023-09-19T10:56:10;1.05;;;0.90;;
22160;SDS011;49035;48.812;11.762;2023-09-19T10:58:42;2.00;;;1.10;;
22160;SDS011;49035;48.812;11.762;2023-09-19T11:01:09;1.02;;;0.90;;
22160;SDS011;49035;48.812;11.762;2023-09-19T11:03:43;1.98;;;1.00;;
22160;SDS011;49035;48.812;11.762;2023-09-19T11:11:42;1.02;;;0.95;;
22160;SDS011;49035;48.812;11.762;2023-09-19T11:30:33;3.72;;;1.10;;
22160;SDS011;49035;48.812;11.762;2023-09-19T11:33:18;2.00;;;1.00;;
22160;SDS011;49035;48.812;11.762;2023-09-19T11:43:51;1.85;;;1.02;;
22160;SDS011;49035;48.812;11.762;2023-09-19T11:49:35;2.40;;;1.17;;
22160;SDS011;49035;48.812;11.762;2023-09-19T11:52:05;1.60;;;1.05;;
22160;SDS011;49035;48.812;11.762;2023-09-19T11:54:33;1.92;;;0.95;;
22160;SDS011;49035;48.812;11.762;2023-09-19T11:57:01;1.33;;;1.00;;
22160;SDS011;49035;48.812;11.762;2023-09-19T11:59:27;1.88;;;0.95;;
22160;SDS011;49035;48.812;11.762;2023-09-19T12:02:00;2.00;;;0.93;;
22160;SDS011;49035;48.812;11.762;2023-09-19T12:04:35;2.22;;;0.80;;
22160;SDS011;49035;48.812;11.762;2023-09-19T12:07:17;1.55;;;1.00;;
22160;SDS011;49035;48.812;11.762;2023-09-19T12:10:02;1.73;;;1.30;;
22160;SDS011;49035;48.812;11.762;2023-09-19T12:12:29;0.85;;;0.85;;
22160;SDS011;49035;48.812;11.762;2023-09-19T12:14:56;1.98;;;1.08;;
22160;SDS011;49035;48.812;11.762;2023-09-19T12:17:46;1.15;;;0.82;;
22160;SDS011;49035;48.812;11.762;2023-09-19T12:20:12;1.35;;;0.90;;
22160;SDS011;49035;48.812;11.762;2023-09-19T12:22:42;2.47;;;0.95;;
22160;SDS011;49035;48.812;11.762;2023-09-19T12:25:09;1.23;;;1.00;;
22160;SDS011;49035;48.812;11.762;2023-09-19T12:27:48;3.25;;;0.95;;
22160;SDS011;49035;48.812;11.762;2023-09-19T12:30:18;9.05;;;1.52;;
22160;SDS011;49035;48.812;11.762;2023-09-19T12:32:45;1.30;;;1.00;;
22160;SDS011;49035;48.812;11.762;2023-09-19T12:35:29;3.28;;;1.00;;
22160;SDS011;49035;48.812;11.762;2023-09-19T12:38:00;4.78;;;1.00;;
22160;SDS011;49035;48.812;11.762;2023-09-19T12:40:26;1.38;;;1.10;;
22160;SDS011;49035;48.812;11.762;2023-09-19T12:42:58;2.15;;;1.10;;
22160;SDS011;49035;48.812;11.762;2023-09-19T12:45:24;1.75;;;0.70;;
22160;SDS011;49035;48.812;11.762;2023-09-19T12:51:00;1.27;;;0.80;;
22160;SDS011;49035;48.812;11.762;2023-09-19T12:53:36;1.25;;;1.15;;
22160;SDS011;49035;48.812;11.762;2023-09-19T12:56:05;1.90;;;0.98;;
22160;SDS011;49035;48.812;11.762;2023-09-19T12:58:33;1.67;;;1.10;;
22160;SDS011;49035;48.812;11.762;2023-09-19T13:01:00;1.23;;;1.13;;
22160;SDS011;49035;48.812;11.762;2023-09-19T13:03:30;1.20;;;0.95;;
22160;SDS011;49035;48.812;11.762;2023-09-19T13:06:02;4.65;;;0.95;;
22160;SDS011;49035;48.812;11.762;2023-09-19T13:08:37;2.85;;;1.20;;
22160;SDS011;49035;48.812;11.762;2023-09-19T13:13:32;2.85;;;1.13;;
22160;SDS011;49035;48.812;11.762;2023-09-19T13:16:01;2.08;;;1.00;;
22160;SDS011;49035;48.812;11.762;2023-09-19T13:18:27;1.92;;;0.90;;
22160;SDS011;49035;48.812;11.762;2023-09-19T13:21:10;2.50;;;1.13;;
22160;SDS011;49035;48.812;11.762;2023-09-19T13:23:50;2.95;;;1.20;;
22160;SDS011;49035;48.812;11.762;2023-09-19T13:26:24;2.85;;;1.08;;
22160;SDS011;49035;48.812;11.762;2023-09-19T13:28:50;1.55;;;1.23;;
22160;SDS011;49035;48.812;11.762;2023-09-19T13:31:15;1.13;;;0.95;;
22160;SDS011;49035;48.812;11.762;2023-09-19T13:33:45;2.00;;;1.33;;
22160;SDS011;49035;48.812;11.762;2023-09-19T13:36:12;1.77;;;1.20;;
22160;SDS011;49035;48.812;11.762;2023-09-19T13:38:41;3.65;;;1.20;;
22160;SDS011;49035;48.812;11.762;2023-09-19T13:41:11;1.65;;;1.20;;
22160;SDS011;49035;48.812;11.762;2023-09-19T13:43:38;2.80;;;1.40;;
22160;SDS011;49035;48.812;11.762;2023-09-19T13:46:04;1.67;;;1.10;;
22160;SDS011;49035;48.812;11.762;2023-09-19T13:48:32;2.20;;;1.40;;
22160;SDS011;49035;48.812;11.762;2023-09-19T13:51:00;1.23;;;1.13;;
22160;SDS011;49035;48.812;11.762;2023-09-19T13:53:26;1.83;;;1.23;;
22160;SDS011;49035;48.812;11.762;2023-09-19T13:55:52;3.47;;;1.33;;
22160;SDS011;49035;48.812;11.762;2023-09-19T13:58:18;1.73;;;1.17;;
22160;SDS011;49035;48.812;11.762;2023-09-19T14:00:43;2.63;;;1.30;;
22160;SDS011;49035;48.812;11.762;2023-09-19T14:03:09;2.55;;;1.15;;
22160;SDS011;49035;48.812;11.762;2023-09-19T14:05:36;1.95;;;1.35;;
22160;SDS011;49035;48.812;11.762;2023-09-19T14:08:02;1.30;;;1.20;;
22160;SDS011;49035;48.812;11.762;2023-09-19T14:10:28;2.97;;;1.48;;
22160;SDS011;49035;48.812;11.762;2023-09-19T14:12:56;2.80;;;1.20;;
22160;SDS011;49035;48.812;11.762;2023-09-19T14:15:24;1.42;;;1.15;;
22160;SDS011;49035;48.812;11.762;2023-09-19T14:17:54;2.00;;;1.20;;
22160;SDS011;49035;48.812;11.762;2023-09-19T14:20:21;2.33;;;1.27;;
22160;SDS011;49035;48.812;11.762;2023-09-19T14:22:48;2.65;;;1.10;;
22160;SDS011;49035;48.812;11.762;2023-09-19T14:25:13;1.98;;;1.00;;
22160;SDS011;49035;48.812;11.762;2023-09-19T14:27:39;1.20;;;0.98;;
22160;SDS011;49035;48.812;11.762;2023-09-19T14:30:06;2.55;;;1.02;;
22160;SDS011;49035;48.812;11.762;2023-09-19T14:32:34;3.13;;;1.30;;
22160;SDS011;49035;48.812;11.762;2023-09-19T14:35:00;1.10;;;0.82;;
22160;SDS011;49035;48.812;11.762;2023-09-19T14:37:26;2.70;;;1.40;;
22160;SDS011;49035;48.812;11.762;2023-09-19T14:39:53;1.00;;;0.77;;
22160;SDS011;49035;48.812;11.762;2023-09-19T14:42:19;3.97;;;1.10;;
22160;SDS011;49035;48.812;11.762;2023-09-19T14:44:45;3.13;;;1.10;;
22160;SDS011;49035;48.812;11.762;2023-09-19T14:47:12;2.08;;;0.98;;
22160;SDS011;49035;48.812;11.762;2023-09-19T14:49:38;5.10;;;0.90;;
22160;SDS011;49035;48.812;11.762;2023-09-19T14:52:07;3.17;;;1.20;;
22160;SDS011;49035;48.812;11.762;2023-09-19T14:54:33;3.53;;;1.08;;
22160;SDS011;49035;48.812;11.762;2023-09-19T14:56:59;1.15;;;0.95;;
22160;SDS011;49035;48.812;11.762;2023-09-19T14:59:33;2.45;;;0.90;;
22160;SDS011;49035;48.812;11.762;2023-09-19T15:02:02;3.13;;;1.00;;
22160;SDS011;49035;48.812;11.762;2023-09-19T15:04:29;2.20;;;1.00;;
22160;SDS011;49035;48.812;11.762;2023-09-19T15:06:54;1.35;;;0.95;;
22160;SDS011;49035;48.812;11.762;2023-09-19T15:09:23;1.60;;;1.08;;
22160;SDS011;49035;48.812;11.762;2023-09-19T15:11:51;2.88;;;0.95;;
22160;SDS011;49035;48.812;11.762;2023-09-19T15:14:17;3.00;;;0.85;;
22160;SDS011;49035;48.812;11.762;2023-09-19T15:16:43;1.33;;;1.10;;
22160;SDS011;49035;48.812;11.762;2023-09-19T15:19:09;1.35;;;1.15;;
22160;SDS011;49035;48.812;11.762;2023-09-19T15:21:35;1.35;;;1.05;;
22160;SDS011;49035;48.812;11.762;2023-09-19T15:24:02;1.73;;;1.08;;
22160;SDS011;49035;48.812;11.762;2023-09-19T15:26:28;2.20;;;1.10;;
22160;SDS011;49035;48.812;11.762;2023-09-19T15:28:55;1.27;;;1.05;;
22160;SDS011;49035;48.812;11.762;2023-09-19T15:31:21;2.15;;;1.50;;
22160;SDS011;49035;48.812;11.762;2023-09-19T15:33:47;1.35;;;0.88;;
22160;SDS011;49035;48.812;11.762;2023-09-19T15:36:13;3.08;;;1.17;;
22160;SDS011;49035;48.812;11.762;2023-09-19T15:41:26;3.25;;;1.33;;